Airfield :
LOGIN :

Register | Disclaimer

   EN    FR    IT 

 










Legend :    VFR   Marginal VFR   IFR   Intensive IFR   Very Intensive IFR
Visi :
Ceiling :
>= 8 km
>= 3000ft
5 to 8 km
1000 to 3000 ft
1500m to 5 km
500 to 1000 ft
800 to 1500m
200 to 500 ft
< 800m
< 200 ft
Symbols :   Thunderstorms  Fog  Heavy snow  Heavy precipitations  Wind > 20 kt
SIGMETs :     Misc.  Thunderstorms  Icing  Turbulence  Mountain Waves  Volcanic Ashes






- Airport Elevation : 26 ft


ETNT - Wittmundhaven AB

CURRENT METAR :
  • 191120Z 19007KT 9999 -DZRA BKN015 BKN025 13/11 Q1003 WHT

EXPIRED METARs :
  • 191106Z 20009KT 9999 -DZRA BKN016 BKN030 13/11 Q1003 WHT
  • 191059Z 19011KT 4000 -RADZ BR BKN012 BKN030 13/10 Q1003 GRN
  • 191020Z 20009KT 9999 BKN015 BKN110 13/10 Q1003 WHT
  • 190920Z 19011KT 9999 SCT018 SCT060 BKN110 13/09 Q1003 BLU

TAF TAF ETNT
Valid from the 19 at 11:00 until the 19 at 20:00 UTC


191025Z 1911/1920 19012KT 9999 NSW SCT015 BKN040
TEMPO 1911/1920 18015KT 4000 RADZ BKN012 BKN050
PROB30 1918/1920 20015G25KT 3000 SHRA BKN007 BKN030CB BY ETGL



MET'MAP, your aeronautical weather chart ! - Copyright ORBIFLY December 2007 - Disclaimer

ORBIFLY MET'MAP TEAM :

Programming & Development : Alexandra Zaïnal
Concept & Development : Baudouin d'Aumeries
Co-Development & Prog : Marc-Olivier Méhu
Technical & hardware support : Manuel Goepfert

Contact : metmap@orbifly.com




SOURCES & CREDITS :

   NOAA